Time;durP1;ratioP1;P1;durP2;ratioP2;P2;SDS_P1;SDS_P2;PMS_P1;PMS_P2;Temp;Humidity;BMP_temperature;BMP_pressure;BME280_temperature;BME280_humidity;BME280_pressure;Samples;Min_cycle;Max_cycle;Signal;HPM_P1;HPM_P2
2021/04/20 00:01:44;;;;;;;179.70;110.30;;;;;;;5.00;85.89;98787.67;113905;1200;64478;-80
2021/04/20 00:04:11;;;;;;;161.25;102.35;;;;;;;5.09;85.99;98781.97;113900;1200;64387;-81
2021/04/20 00:06:38;;;;;;;158.83;100.43;;;;;;;5.14;86.08;98779.11;113611;1200;64464;-80
2021/04/20 00:09:09;;;;;;;169.20;96.83;;;;;;;5.16;86.15;98780.75;113930;1199;64378;-81
2021/04/20 00:11:37;;;;;;;146.30;92.50;;;;;;;5.19;86.26;98790.31;113617;1199;64375;-80
2021/04/20 00:14:08;;;;;;;146.80;92.00;;;;;;;5.22;85.96;98782.23;113923;1200;64532;-81
2021/04/20 00:16:35;;;;;;;143.83;89.23;;;;;;;5.21;85.92;98780.50;113977;1198;64301;-81
2021/04/20 00:19:04;;;;;;;137.23;88.80;;;;;;;5.21;86.00;98789.31;113927;1199;64401;-81
2021/04/20 00:21:32;;;;;;;128.20;84.57;;;;;;;5.25;85.97;98790.00;113682;1200;64350;-81
2021/04/20 00:23:59;;;;;;;144.93;86.60;;;;;;;5.26;85.80;98784.63;113942;1200;64427;-80
2021/04/20 00:26:26;;;;;;;158.70;88.15;;;;;;;5.24;85.85;98775.95;113693;1200;64452;-80
2021/04/20 00:28:53;;;;;;;172.93;91.37;;;;;;;5.19;85.50;98779.74;113919;1200;64375;-80
2021/04/20 00:31:20;;;;;;;172.05;87.55;;;;;;;5.13;85.76;98787.94;113938;1198;64371;-81
2021/04/20 00:33:47;;;;;;;139.20;84.73;;;;;;;5.10;85.92;98783.66;113629;1199;64334;-81
2021/04/20 00:36:14;;;;;;;132.13;86.07;;;;;;;5.05;86.02;98785.66;113663;1200;64470;-81
2021/04/20 00:38:41;;;;;;;139.90;88.83;;;;;;;5.06;85.84;98784.76;113660;1199;64474;-81
2021/04/20 00:41:09;;;;;;;136.47;89.87;;;;;;;5.02;85.83;98784.03;113893;1200;64321;-81
2021/04/20 00:43:45;;;;;;;166.57;98.23;;;;;;;4.97;85.75;98780.75;113638;1199;64336;-81
2021/04/20 00:46:14;;;;;;;153.60;92.30;;;;;;;4.95;85.75;98787.03;113941;1199;64366;-81
2021/04/20 00:48:41;;;;;;;146.07;88.60;;;;;;;4.94;86.16;98777.41;113954;1200;64298;-81
2021/04/20 00:51:09;;;;;;;143.60;89.35;;;;;;;4.96;86.04;98776.41;113670;1199;64475;-81
2021/04/20 00:53:36;;;;;;;149.73;88.10;;;;;;;5.02;86.55;98778.75;113888;1199;64445;-81
2021/04/20 00:56:04;;;;;;;144.63;88.10;;;;;;;5.09;86.94;98767.91;113925;1200;64481;-81
2021/04/20 00:58:31;;;;;;;134.80;83.60;;;;;;;5.15;86.78;98778.17;113943;1200;64362;-81
2021/04/20 01:00:59;;;;;;;140.70;86.40;;;;;;;5.16;86.21;98767.54;113972;1199;64349;-81
2021/04/20 01:03:26;;;;;;;174.77;89.17;;;;;;;5.14;86.36;98765.91;113911;1200;64494;-81
2021/04/20 01:05:54;;;;;;;167.90;87.95;;;;;;;5.11;86.25;98766.91;113957;1199;64375;-83
2021/04/20 01:08:24;;;;;;;208.40;90.75;;;;;;;5.09;86.33;98766.12;113861;1200;64376;-81
2021/04/20 01:10:59;;;;;;;146.87;88.17;;;;;;;5.10;86.31;98757.25;113950;1199;64375;-80
2021/04/20 01:13:29;;;;;;;138.17;84.53;;;;;;;5.11;86.36;98766.02;113741;1199;64513;-81
2021/04/20 01:15:56;;;;;;;;;;;;;;;5.11;86.51;98771.30;113914;1204;64375;-81
2021/04/20 01:18:31;;;;;;;128.33;82.67;;;;;;;5.13;86.74;98761.53;113930;1199;64483;-81
2021/04/20 01:21:10;;;;;;;131.40;82.65;;;;;;;5.17;86.71;98766.59;114004;1200;64378;-81
2021/04/20 01:23:48;;;;;;;131.37;82.33;;;;;;;5.21;86.80;98768.17;113755;1200;64349;-81
2021/04/20 01:26:17;;;;;;;125.37;78.13;;;;;;;5.26;86.94;98766.13;113953;1199;64324;-82
2021/04/20 01:28:45;;;;;;;126.30;82.03;;;;;;;5.33;87.23;98763.21;113784;1200;64484;-82
2021/04/20 01:31:16;;;;;;;127.63;78.97;;;;;;;5.39;86.91;98760.25;114033;1197;64867;-82
2021/04/20 01:33:44;;;;;;;156.70;80.27;;;;;;;5.44;87.12;98758.23;113887;1200;64481;-82
2021/04/20 01:36:12;;;;;;;175.87;80.87;;;;;;;5.42;86.90;98758.30;113960;1198;64401;-82
2021/04/20 01:38:44;;;;;;;189.63;81.80;;;;;;;5.44;86.98;98764.38;113692;1197;64400;-82
2021/04/20 01:41:14;;;;;;;144.43;80.40;;;;;;;5.44;87.04;98760.88;113961;1199;64430;-83
2021/04/20 01:43:41;;;;;;;133.97;80.10;;;;;;;5.44;87.17;98761.73;113747;1199;64378;-81
2021/04/20 01:46:09;;;;;;;120.83;76.57;;;;;;;5.47;86.96;98766.02;113751;1198;64378;-81
2021/04/20 01:48:36;;;;;;;116.83;76.53;;;;;;;5.51;87.00;98764.94;113906;1200;64295;-80
2021/04/20 01:51:03;;;;;;;130.40;78.97;;;;;;;5.56;87.16;98770.00;113644;1200;64316;-81
2021/04/20 01:53:30;;;;;;;127.60;80.50;;;;;;;5.61;87.23;98765.31;113660;1199;64442;-81
2021/04/20 01:56:01;;;;;;;120.40;78.10;;;;;;;5.66;87.12;98768.58;113704;1200;64513;-81
2021/04/20 01:58:30;;;;;;;122.70;76.90;;;;;;;5.67;87.02;98765.02;113877;1199;64381;-81
2021/04/20 02:00:59;;;;;;;116.17;75.63;;;;;;;5.69;87.07;98766.66;113922;1200;64381;-80
2021/04/20 02:03:27;;;;;;;122.85;77.65;;;;;;;5.72;87.05;98773.58;113949;1198;64478;-80
2021/04/20 02:05:55;;;;;;;138.80;80.35;;;;;;;5.75;87.07;98770.77;113917;1199;64429;-81
2021/04/20 02:08:22;;;;;;;157.27;78.27;;;;;;;5.75;86.96;98769.92;113876;1197;64373;-81
2021/04/20 02:10:50;;;;;;;164.70;78.10;;;;;;;5.75;87.20;98769.92;113974;1199;64362;-80
2021/04/20 02:13:17;;;;;;;126.90;71.80;;;;;;;5.75;87.09;98769.92;113944;1199;64484;-81
2021/04/20 02:15:44;;;;;;;110.75;67.10;;;;;;;5.75;87.21;98769.92;113678;1200;64468;-82
2021/04/20 02:18:12;;;;;;;114.37;70.13;;;;;;;5.75;87.20;98770.77;113898;1199;64490;-81
2021/04/20 02:20:41;;;;;;;114.55;69.75;;;;;;;5.75;87.33;98765.48;113912;1197;64410;-81
2021/04/20 02:23:08;;;;;;;108.90;68.67;;;;;;;5.77;87.46;98774.20;113700;1200;64410;-80
2021/04/20 02:25:35;;;;;;;109.53;67.33;;;;;;;5.77;87.13;98770.70;113885;1199;64382;-81
2021/04/20 02:28:02;;;;;;;103.77;65.70;;;;;;;5.77;87.33;98773.35;113922;1200;64362;-81
2021/04/20 02:30:29;;;;;;;121.75;68.70;;;;;;;5.79;87.60;98777.59;113921;1200;64467;-81
2021/04/20 02:32:56;;;;;;;117.83;71.57;;;;;;;5.84;87.64;98772.94;113711;1200;64353;-81
2021/04/20 02:35:28;;;;;;;121.97;73.07;;;;;;;5.86;87.55;98772.87;113927;1198;64368;-80
2021/04/20 02:37:55;;;;;;;129.00;75.07;;;;;;;5.82;87.32;98772.18;113945;1199;64465;-81
2021/04/20 02:40:25;;;;;;;138.65;76.25;;;;;;;5.81;87.24;98764.31;113913;1199;64301;-81
2021/04/20 02:42:53;;;;;;;146.33;78.93;;;;;;;5.81;87.44;98767.80;113778;1199;64707;-82
2021/04/20 02:45:23;;;;;;;132.03;80.10;;;;;;;5.82;87.52;98771.30;113784;1199;64531;-82
2021/04/20 02:47:51;;;;;;;115.87;71.53;;;;;;;5.81;87.36;98769.60;113780;1200;64439;-82
2021/04/20 02:50:26;;;;;;;126.43;73.83;;;;;;;5.75;87.24;98767.28;113895;1200;64359;-82
2021/04/20 02:52:56;;;;;;;124.77;72.63;;;;;;;5.72;87.50;98761.21;113930;1199;64400;-82
2021/04/20 02:55:24;;;;;;;120.30;72.60;;;;;;;5.72;87.54;98763.00;113978;1200;64404;-83
2021/04/20 02:57:57;;;;;;;119.77;72.13;;;;;;;5.72;87.58;98766.50;113864;1200;64447;-83
2021/04/20 03:00:25;;;;;;;124.43;74.47;;;;;;;5.72;87.58;98760.36;113925;1200;64432;-82
2021/04/20 03:03:02;;;;;;;137.60;77.75;;;;;;;5.69;87.44;98760.52;113779;1198;64366;-81
2021/04/20 03:05:30;;;;;;;128.57;78.37;;;;;;;5.64;87.50;98757.25;113826;1199;64362;-81
2021/04/20 03:07:58;;;;;;;136.03;78.13;;;;;;;5.66;87.41;98760.65;113890;1199;64522;-81
2021/04/20 03:10:28;;;;;;;134.20;80.50;;;;;;;5.63;87.46;98763.45;113706;1200;64468;-81
2021/04/20 03:12:55;;;;;;;135.08;77.18;;;;;;;5.65;87.77;98757.16;113927;1199;64404;-81
2021/04/20 03:15:22;;;;;;;131.10;79.23;;;;;;;5.66;87.72;98756.24;113919;1200;64377;-81
2021/04/20 03:17:49;;;;;;;127.30;76.93;;;;;;;5.67;87.45;98760.59;113684;1199;64493;-81
2021/04/20 03:20:18;;;;;;;144.30;77.60;;;;;;;5.68;87.78;98759.64;113687;1200;64493;-81
2021/04/20 03:22:46;;;;;;;140.70;77.55;;;;;;;5.67;87.51;98755.30;113961;1200;64474;-81
2021/04/20 03:25:22;;;;;;;158.33;79.80;;;;;;;5.69;87.84;98752.59;113973;1199;64324;-81
2021/04/20 03:27:53;;;;;;;152.20;77.40;;;;;;;5.67;87.59;98754.45;113650;1199;64324;-80
2021/04/20 03:30:45;;;;;;;118.63;73.73;;;;;;;5.60;87.72;98756.53;113928;1198;64378;-82
2021/04/20 03:33:23;;;;;;;117.35;73.05;;;;;;;5.57;87.65;98753.20;114052;1199;64509;-80
2021/04/20 03:36:08;;;;;;;111.13;70.57;;;;;;;5.54;87.74;98756.85;114330;1198;64410;-80
2021/04/20 03:38:55;;;;;;;112.50;68.73;;;;;;;5.50;87.51;98758.80;114328;1197;64301;-80
2021/04/20 03:41:26;;;;;;;116.40;71.67;;;;;;;5.48;87.55;98762.45;113849;1198;64407;-82
2021/04/20 03:43:57;;;;;;;114.75;71.55;;;;;;;5.50;87.68;98763.21;113725;1198;64376;-80
2021/04/20 03:46:33;;;;;;;131.90;76.97;;;;;;;5.49;87.51;98754.44;113635;1198;64490;-81
2021/04/20 03:49:15;;;;;;;148.33;78.47;;;;;;;5.50;87.77;98752.64;113693;1199;64330;-81
2021/04/20 03:51:45;;;;;;;152.40;79.10;;;;;;;5.54;88.13;98750.72;113633;1200;64378;-81
2021/04/20 03:54:14;;;;;;;125.93;78.93;;;;;;;5.60;88.15;98756.53;113673;1200;64384;-81
2021/04/20 03:56:45;;;;;;;133.20;79.97;;;;;;;5.65;88.31;98757.16;113852;1200;64548;-81
2021/04/20 03:59:14;;;;;;;126.27;77.20;;;;;;;5.72;88.05;98750.63;113914;1198;64564;-81
2021/04/20 04:01:45;;;;;;;127.15;79.00;;;;;;;5.79;88.08;98747.66;113748;1199;64522;-82
2021/04/20 04:04:16;;;;;;;126.90;74.20;;;;;;;5.85;88.03;98747.38;113976;1199;64346;-82
2021/04/20 04:06:44;;;;;;;119.13;72.40;;;;;;;5.91;87.90;98750.53;113668;1200;64432;-80
2021/04/20 04:09:12;;;;;;;120.67;74.93;;;;;;;5.96;88.03;98747.69;113741;1200;64349;-84
2021/04/20 04:11:45;;;;;;;127.60;72.73;;;;;;;5.99;87.82;98742.23;113798;1199;64420;-80
2021/04/20 04:14:14;;;;;;;124.67;71.03;;;;;;;6.04;87.84;98742.00;113841;1197;64467;-83
2021/04/20 04:16:45;;;;;;;116.67;71.83;;;;;;;6.06;87.85;98748.08;114027;1199;64362;-82
2021/04/20 04:19:14;;;;;;;109.33;67.70;;;;;;;6.06;87.76;98745.43;114048;1200;64397;-80
2021/04/20 04:21:46;;;;;;;102.70;63.60;;;;;;;6.05;87.66;98747.20;114070;1200;64410;-81
2021/04/20 04:24:18;;;;;;;111.43;72.27;;;;;;;6.08;87.77;98754.11;113712;1199;64497;-83
2021/04/20 04:26:50;;;;;;;118.30;69.10;;;;;;;6.13;87.80;98749.44;113772;1200;64413;-82
2021/04/20 04:29:20;;;;;;;120.73;70.70;;;;;;;6.16;87.60;98743.98;113626;1198;64423;-81
2021/04/20 04:31:49;;;;;;;129.27;74.87;;;;;;;6.16;87.56;98751.92;113642;1200;64439;-81
2021/04/20 04:34:18;;;;;;;144.25;74.95;;;;;;;6.14;87.56;98759.95;113670;1199;64558;-81
2021/04/20 04:36:47;;;;;;;122.75;72.43;;;;;;;6.12;87.52;98758.33;113730;1200;64375;-81
2021/04/20 04:39:16;;;;;;;115.20;72.83;;;;;;;6.15;87.88;98760.80;113910;1200;64381;-81
2021/04/20 04:41:44;;;;;;;106.63;70.93;;;;;;;6.23;87.69;98761.25;113755;1199;64391;-81
2021/04/20 04:44:12;;;;;;;116.47;67.50;;;;;;;6.27;87.31;98759.31;113835;1200;64404;-81
2021/04/20 04:46:45;;;;;;;113.63;69.20;;;;;;;6.30;87.60;98753.86;113858;1200;64404;-81
2021/04/20 04:49:15;;;;;;;119.65;70.55;;;;;;;6.37;87.71;98756.09;113872;1200;64532;-81
2021/04/20 04:51:42;;;;;;;122.23;69.93;;;;;;;6.46;87.63;98762.67;113722;1199;64547;-81
2021/04/20 04:54:13;;;;;;;128.13;66.63;;;;;;;6.52;87.45;98759.69;113947;1200;64343;-82
2021/04/20 04:56:41;;;;;;;128.00;70.45;;;;;;;6.55;87.38;98756.87;113990;1200;64397;-81
2021/04/20 04:59:09;;;;;;;118.70;67.93;;;;;;;6.59;87.24;98761.08;113702;1199;64372;-80
2021/04/20 05:01:38;;;;;;;119.60;68.47;;;;;;;6.58;86.97;98763.79;113677;1199;64467;-80
2021/04/20 05:04:11;;;;;;;112.70;67.93;;;;;;;6.59;87.17;98758.42;113927;1200;64570;-80
2021/04/20 05:06:46;;;;;;;99.00;64.35;;;;;;;6.61;86.78;98763.66;113840;1197;64365;-81
2021/04/20 05:09:19;;;;;;;110.60;66.75;;;;;;;6.56;86.67;98761.25;113686;1200;64464;-82
2021/04/20 05:11:48;;;;;;;107.67;69.00;;;;;;;6.63;86.83;98760.90;113712;1200;64371;-80
2021/04/20 05:14:16;;;;;;;110.17;66.47;;;;;;;6.69;86.64;98752.61;113886;1200;64631;-80
2021/04/20 05:16:51;;;;;;;103.87;66.63;;;;;;;6.74;86.71;98756.74;113898;1199;64499;-82
2021/04/20 05:19:36;;;;;;;113.80;66.27;;;;;;;6.83;86.35;98754.52;113859;1200;64375;-80
2021/04/20 05:22:03;;;;;;;113.17;65.37;;;;;;;6.86;86.40;98755.20;113867;1200;64375;-80
2021/04/20 05:24:29;;;;;;;98.93;61.63;;;;;;;6.90;86.41;98761.16;113687;1200;64387;-80
2021/04/20 05:26:57;;;;;;;100.80;63.50;;;;;;;6.86;86.10;98765.79;113672;1200;64391;-80
2021/04/20 05:29:23;;;;;;;103.85;60.55;;;;;;;6.94;86.38;98758.27;113752;1199;64401;-81
2021/04/20 05:31:51;;;;;;;100.75;60.30;;;;;;;7.00;86.36;98759.72;113726;1199;64468;-82
2021/04/20 05:34:20;;;;;;;112.27;65.43;;;;;;;7.05;86.09;98757.66;113892;1199;64362;-81
2021/04/20 05:36:48;;;;;;;113.47;66.30;;;;;;;7.14;86.17;98751.01;113897;1200;64762;-83
2021/04/20 05:39:16;;;;;;;114.40;67.73;;;;;;;7.20;85.99;98759.45;113733;1199;64459;-82
2021/04/20 05:41:44;;;;;;;107.30;66.15;;;;;;;7.24;86.09;98763.65;113886;1200;64324;-81
2021/04/20 05:44:12;;;;;;;106.73;61.90;;;;;;;7.28;85.77;98766.97;113874;1199;64350;-81
2021/04/20 05:46:46;;;;;;;107.40;63.80;;;;;;;7.33;85.96;98767.56;113872;1199;64368;-81
2021/04/20 05:49:15;;;;;;;104.43;62.13;;;;;;;7.46;85.96;98776.52;113923;1198;64365;-81
2021/04/20 05:51:42;;;;;;;109.40;64.50;;;;;;;7.61;86.02;98768.59;113912;1200;64435;-81
2021/04/20 05:54:10;;;;;;;115.55;64.65;;;;;;;7.73;85.41;98765.23;113895;1198;64462;-82
2021/04/20 05:56:38;;;;;;;124.40;68.73;;;;;;;7.73;85.11;98765.23;113887;1200;64324;-81
2021/04/20 05:59:05;;;;;;;124.03;69.93;;;;;;;7.81;85.13;98773.59;113915;1200;64413;-82
2021/04/20 06:01:42;;;;;;;117.60;66.03;;;;;;;7.87;84.87;98759.10;113696;1200;64410;-82
2021/04/20 06:04:11;;;;;;;110.60;62.27;;;;;;;7.83;84.59;98762.91;113777;1200;64909;-81
2021/04/20 06:06:39;;;;;;;106.50;63.35;;;;;;;7.84;84.90;98762.79;113931;1198;64483;-81
2021/04/20 06:09:08;;;;;;;117.40;69.60;;;;;;;7.88;85.05;98768.79;113892;1200;64889;-82
2021/04/20 06:11:35;;;;;;;118.53;66.57;;;;;;;7.97;85.02;98767.38;113741;1199;64410;-81
2021/04/20 06:14:03;;;;;;;127.53;67.97;;;;;;;8.01;84.96;98772.42;113929;1199;64375;-83
2021/04/20 06:16:31;;;;;;;107.00;61.20;;;;;;;7.96;84.58;98785.11;113876;1200;64371;-81
2021/04/20 06:18:58;;;;;;;102.13;60.73;;;;;;;7.90;84.61;98782.83;113882;1200;64445;-80
2021/04/20 06:21:26;;;;;;;100.40;60.50;;;;;;;7.84;84.65;98783.17;113723;1200;64419;-82
2021/04/20 06:23:54;;;;;;;103.70;61.47;;;;;;;7.89;84.73;98778.45;113973;1200;64299;-82
2021/04/20 06:26:22;;;;;;;105.30;59.40;;;;;;;7.99;84.98;98782.27;113714;1199;64410;-80
2021/04/20 06:28:48;;;;;;;94.30;57.80;;;;;;;8.14;84.66;98789.31;113687;1199;64544;-81
2021/04/20 06:31:16;;;;;;;97.77;61.47;;;;;;;8.36;84.39;98780.88;113680;1199;64391;-82
2021/04/20 06:33:45;;;;;;;90.17;57.37;;;;;;;8.53;83.76;98779.02;113684;1200;64365;-81
2021/04/20 06:36:12;;;;;;;87.73;59.03;;;;;;;8.55;83.77;98777.13;113959;1200;64397;-82
2021/04/20 06:38:40;;;;;;;78.60;53.40;;;;;;;8.55;83.12;98779.78;113698;1199;64387;-81
2021/04/20 06:41:09;;;;;;;72.60;49.80;;;;;;;8.60;82.94;98771.53;113743;1200;64411;-81
2021/04/20 06:43:55;;;;;;;76.30;50.97;;;;;;;8.70;83.05;98770.86;113774;1198;64461;-81
2021/04/20 06:46:28;;;;;;;84.57;56.77;;;;;;;8.86;83.40;98765.42;113908;1200;64838;-83
2021/04/20 06:49:02;;;;;;;91.47;58.57;;;;;;;9.03;83.40;98774.12;113750;1199;64439;-82
2021/04/20 06:51:35;;;;;;;97.87;61.83;;;;;;;9.18;83.10;98771.33;113877;1200;64406;-82
2021/04/20 06:54:09;;;;;;;96.50;63.30;;;;;;;9.25;83.19;98777.11;113843;1200;64528;-82
2021/04/20 06:56:46;;;;;;;98.73;64.73;;;;;;;9.32;82.91;98767.80;113889;1199;64298;-83
2021/04/20 07:00:04;;;;;;;94.65;61.60;;;;;;;9.55;82.77;98765.41;113950;1200;64464;-82
2021/04/20 07:03:02;;;;;;;95.90;64.27;;;;;;;9.53;81.86;98762.87;113482;1202;64559;-83
2021/04/20 07:05:30;;;;;;;85.30;55.53;;;;;;;9.46;81.53;98772.20;113996;1199;64375;-83
2021/04/20 07:08:11;;;;;;;82.90;54.30;;;;;;;9.44;81.95;98766.12;113981;1200;65075;-83
2021/04/20 07:10:44;;;;;;;82.13;53.17;;;;;;;9.52;82.07;98765.61;113991;1199;64455;-84
2021/04/20 07:13:16;;;;;;;82.50;56.53;;;;;;;9.61;81.79;98768.53;114007;1199;64334;-82
2021/04/20 07:15:49;;;;;;;84.40;58.77;;;;;;;9.82;81.35;98770.68;113912;1200;64410;-81
2021/04/20 07:18:18;;;;;;;77.60;53.93;;;;;;;9.92;80.87;98768.26;113738;1199;64404;-81
2021/04/20 07:21:20;;;;;;;95.88;62.25;;;;;;;9.97;80.73;98768.80;113924;1199;64468;-83
2021/04/20 07:24:03;;;;;;;87.80;57.30;;;;;;;10.05;80.87;98769.13;113911;1197;64553;-82
2021/04/20 07:26:56;;;;;;;89.53;59.67;;;;;;;10.17;80.50;98765.63;113990;1199;64304;-82
2021/04/20 07:29:37;;;;;;;83.00;58.95;;;;;;;10.36;79.76;98769.72;113988;1199;64365;-81
2021/04/20 07:32:35;;;;;;;76.10;54.43;;;;;;;10.49;79.92;98775.89;114025;1199;64369;-82
2021/04/20 07:35:22;;;;;;;76.03;55.73;;;;;;;10.61;79.83;98780.37;113915;1199;64380;-81
2021/04/20 07:38:02;;;;;;;68.30;51.23;;;;;;;10.85;78.97;98776.89;113947;1200;64506;-82
2021/04/20 07:41:03;;;;;;;80.27;53.10;;;;;;;10.87;79.09;98783.82;113788;1199;64388;-82
2021/04/20 07:44:06;;;;;;;83.10;58.45;;;;;;;10.81;79.26;98776.27;113922;1199;64397;-82
2021/04/20 07:46:42;;;;;;;79.07;56.87;;;;;;;10.78;79.47;98784.49;113893;1200;64343;-83
2021/04/20 07:49:17;;;;;;;73.33;50.80;;;;;;;10.74;79.21;98781.20;113813;1199;64446;-81
2021/04/20 07:52:04;;;;;;;86.70;58.50;;;;;;;10.73;78.38;98789.30;113863;1199;64519;-81
2021/04/20 07:54:46;;;;;;;83.55;55.55;;;;;;;11.00;77.94;98775.80;113876;1199;64409;-82
2021/04/20 07:57:17;;;;;;;74.07;54.43;;;;;;;11.55;77.90;98773.57;113889;1199;64410;-82
2021/04/20 07:59:54;;;;;;;74.33;53.07;;;;;;;11.90;77.45;98773.64;113850;1199;64366;-81
2021/04/20 08:02:30;;;;;;;80.67;56.03;;;;;;;12.22;76.97;98763.15;113900;1199;65079;-82
2021/04/20 08:05:08;;;;;;;70.47;53.00;;;;;;;12.40;76.30;98760.00;113775;1200;64463;-83
2021/04/20 08:07:55;;;;;;;68.10;51.80;;;;;;;12.54;75.84;98758.94;113911;1198;64401;-83
2021/04/20 08:10:58;;;;;;;73.77;52.27;;;;;;;12.84;76.04;98756.48;113774;1198;64346;-81
2021/04/20 08:13:44;;;;;;;66.07;50.23;;;;;;;13.21;75.18;98758.86;113714;1199;64400;-81
2021/04/20 08:16:31;;;;;;;66.70;50.20;;;;;;;13.42;74.12;98758.95;113879;1200;64525;-81
2021/04/20 08:19:04;;;;;;;64.30;48.53;;;;;;;13.61;74.28;98759.15;113904;1198;64780;-81
2021/04/20 08:21:32;;;;;;;67.83;50.73;;;;;;;13.78;73.96;98763.08;113658;1198;64371;-82
2021/04/20 08:24:05;;;;;;;61.53;47.80;;;;;;;13.81;73.59;98756.62;113889;1200;64378;-83
2021/04/20 08:26:41;;;;;;;62.80;49.13;;;;;;;13.83;71.79;98754.67;113913;1200;64353;-81
2021/04/20 08:29:15;;;;;;;62.55;49.95;;;;;;;13.56;72.14;98750.65;113836;1200;64761;-82
2021/04/20 08:31:58;;;;;;;61.83;48.33;;;;;;;13.59;72.32;98757.58;113912;1200;64599;-82
2021/04/20 08:34:40;;;;;;;64.33;47.83;;;;;;;13.86;73.13;98745.53;113863;1200;64364;-82
2021/04/20 08:37:32;;;;;;;63.07;49.00;;;;;;;13.99;72.21;98747.03;113911;1199;64451;-82
2021/04/20 08:40:12;;;;;;;63.95;51.00;;;;;;;13.75;71.83;98741.08;113918;1199;64350;-82
2021/04/20 08:42:57;;;;;;;62.60;48.53;;;;;;;13.48;70.99;98747.77;113878;1199;64350;-82
2021/04/20 08:45:32;;;;;;;69.87;54.23;;;;;;;13.13;71.24;98750.61;113898;1199;64508;-82
2021/04/20 08:48:24;;;;;;;66.00;51.50;;;;;;;12.85;72.33;98746.63;113946;1200;64375;-82
2021/04/20 08:51:01;;;;;;;64.00;48.30;;;;;;;12.90;72.61;98739.09;113927;1200;64340;-82
2021/04/20 08:54:01;;;;;;;61.87;48.07;;;;;;;13.04;73.02;98746.02;113955;1200;64445;-82
2021/04/20 08:56:38;;;;;;;61.83;49.43;;;;;;;13.20;71.51;98746.46;113863;1198;64512;-81
2021/04/20 08:59:32;;;;;;;63.00;48.70;;;;;;;13.16;71.06;98739.65;113762;1199;64391;-83
2021/04/20 09:02:22;;;;;;;69.37;52.43;;;;;;;13.05;71.32;98743.20;113747;1200;64430;-82
2021/04/20 09:05:19;;;;;;;62.00;48.40;;;;;;;13.09;70.90;98747.34;113902;1199;64324;-82
2021/04/20 09:07:59;;;;;;;56.17;44.87;;;;;;;13.11;70.14;98734.70;113884;1200;64410;-82
2021/04/20 09:10:56;;;;;;;61.17;48.40;;;;;;;13.20;71.24;98734.91;113886;1199;64326;-81
2021/04/20 09:13:30;;;;;;;62.33;48.10;;;;;;;13.14;70.84;98734.44;113743;1199;64918;-81
2021/04/20 09:16:05;;;;;;;65.30;50.77;;;;;;;13.25;71.25;98727.36;113773;1199;64378;-81
2021/04/20 09:18:43;;;;;;;61.83;49.20;;;;;;;13.38;71.20;98728.08;113717;1198;64503;-82
2021/04/20 09:21:18;;;;;;;60.75;47.20;;;;;;;13.41;70.71;98727.82;113905;1200;64366;-81
2021/04/20 09:24:04;;;;;;;69.13;50.00;;;;;;;13.46;70.73;98724.77;113737;1200;64337;-82
2021/04/20 09:27:09;;;;;;;70.00;54.33;;;;;;;13.51;70.09;98727.92;113870;1199;64493;-82
2021/04/20 09:29:44;;;;;;;66.47;49.93;;;;;;;13.43;70.26;98716.97;113892;1200;64375;-82
2021/04/20 09:32:21;;;;;;;73.80;55.47;;;;;;;13.43;70.20;98712.48;113862;1200;64397;-82
2021/04/20 09:34:54;;;;;;;73.53;56.13;;;;;;;13.49;70.50;98720.00;113714;1199;64368;-82
2021/04/20 09:37:23;;;;;;;72.10;55.00;;;;;;;13.60;70.47;98713.75;113904;1199;64378;-82
2021/04/20 09:39:54;;;;;;;76.93;59.17;;;;;;;13.72;70.49;98715.40;113953;1200;64353;-82
2021/04/20 09:42:22;;;;;;;74.00;55.90;;;;;;;13.77;70.31;98723.90;113950;1198;64363;-83
2021/04/20 09:45:08;;;;;;;77.27;57.17;;;;;;;13.69;70.19;98715.66;113960;1200;64404;-82
2021/04/20 09:47:37;;;;;;;67.23;53.00;;;;;;;13.93;69.84;98718.09;113769;1199;64343;-83
2021/04/20 09:50:16;;;;;;;69.25;55.35;;;;;;;14.30;70.23;98708.69;114077;1199;64327;-82
2021/04/20 09:53:00;;;;;;;71.73;55.17;;;;;;;14.80;70.01;98706.13;113924;1198;64729;-85
2021/04/20 09:55:35;;;;;;;73.07;55.33;;;;;;;15.31;69.49;98705.09;114036;1200;64375;-83
2021/04/20 09:58:05;;;;;;;68.67;56.13;;;;;;;15.51;68.53;98705.97;113786;1199;64436;-84
2021/04/20 10:00:33;;;;;;;;;;;;;;;15.47;66.67;98710.75;113790;1204;64302;-82
2021/04/20 10:03:22;;;;;;;73.37;56.13;;;;;;;15.31;67.38;98699.72;113634;1200;64531;-81
2021/04/20 10:05:55;;;;;;;70.27;55.33;;;;;;;15.33;67.41;98697.76;113661;1197;64555;-82
2021/04/20 10:08:50;;;;;;;66.77;50.77;;;;;;;15.30;66.53;98703.41;113933;1199;64372;-81
2021/04/20 10:11:47;;;;;;;66.23;50.20;;;;;;;15.00;67.16;98694.44;113636;1200;64439;-81
2021/04/20 10:14:28;;;;;;;72.90;56.17;;;;;;;14.83;67.56;98703.17;113950;1199;64375;-81
2021/04/20 10:17:24;;;;;;;72.73;57.40;;;;;;;14.73;68.30;98700.45;113975;1199;64471;-82
2021/04/20 10:20:06;;;;;;;65.53;50.57;;;;;;;14.62;67.63;98695.20;114162;1198;64382;-86
2021/04/20 10:23:05;;;;;;;69.00;50.80;;;;;;;14.50;68.19;98689.88;114734;1198;64464;-88
2021/04/20 10:25:42;;;;;;;62.13;47.07;;;;;;;14.47;67.99;98700.88;113851;1197;64458;-86
2021/04/20 10:28:45;;;;;;;64.35;48.00;;;;;;;14.58;68.18;98691.08;113786;1196;64419;-88
2021/04/20 10:31:20;;;;;;;68.00;50.63;;;;;;;14.75;67.79;98686.91;113980;1200;64494;-82
2021/04/20 10:33:50;;;;;;;69.15;51.60;;;;;;;15.18;67.70;98683.88;113968;1200;64366;-82
2021/04/20 10:36:23;;;;;;;62.43;47.83;;;;;;;15.44;67.28;98681.50;113918;1196;64308;-82
2021/04/20 10:38:54;;;;;;;51.60;41.33;;;;;;;15.75;66.03;98676.85;113945;1196;64444;-82
2021/04/20 10:41:22;;;;;;;53.37;40.70;;;;;;;15.84;63.47;98675.14;114754;1196;64282;-82
2021/04/20 10:43:51;;;;;;;50.17;41.77;;;;;;;15.92;65.42;98675.26;113819;1196;64333;-82
2021/04/20 10:46:24;;;;;;;54.57;43.93;;;;;;;16.36;65.71;98666.66;114003;1197;64340;-82
2021/04/20 10:48:54;;;;;;;54.25;44.30;;;;;;;16.77;65.11;98667.16;113936;1197;64487;-82
2021/04/20 10:51:29;;;;;;;37.65;31.13;;;;;;;17.07;62.58;98661.48;114015;1196;64352;-82
2021/04/20 10:53:58;;;;;;;29.97;24.87;;;;;;;17.09;60.49;98658.66;113902;1197;64371;-82
2021/04/20 10:56:25;;;;;;;32.67;27.87;;;;;;;17.06;59.63;98659.81;113998;1197;64506;-82
2021/04/20 10:58:55;;;;;;;34.85;28.75;;;;;;;17.09;59.66;98662.19;114027;1196;64481;-82
2021/04/20 11:01:27;;;;;;;45.53;37.87;;;;;;;17.13;58.90;98645.73;114024;1197;64455;-84
2021/04/20 11:03:56;;;;;;;43.23;37.20;;;;;;;16.87;58.85;98654.53;113970;1196;64375;-82
2021/04/20 11:07:01;;;;;;;48.80;39.10;;;;;;;16.68;59.20;98652.77;113918;1196;64382;-82
2021/04/20 11:09:30;;;;;;;46.10;39.77;;;;;;;16.46;60.20;98649.48;113947;1196;64369;-82
2021/04/20 11:11:57;;;;;;;48.05;37.95;;;;;;;16.27;60.36;98648.70;113700;1196;64480;-82
2021/04/20 11:14:45;;;;;;;57.47;43.67;;;;;;;16.04;60.42;98646.39;113943;1196;64369;-82
2021/04/20 11:17:23;;;;;;;54.13;43.07;;;;;;;15.81;60.75;98648.55;113976;1196;64346;-82
2021/04/20 11:19:57;;;;;;;55.53;41.63;;;;;;;15.78;61.66;98641.63;113886;1196;64471;-82
2021/04/20 11:22:27;;;;;;;53.90;42.00;;;;;;;15.80;61.13;98638.81;113908;1196;64381;-81
2021/04/20 11:24:59;;;;;;;52.50;42.60;;;;;;;15.79;61.16;98646.00;113947;1196;64299;-81
2021/04/20 11:27:30;;;;;;;56.00;41.40;;;;;;;15.74;60.21;98634.84;113948;1196;64362;-81
2021/04/20 11:30:17;;;;;;;50.70;38.10;;;;;;;15.74;60.70;98634.00;113917;1196;64365;-82
2021/04/20 11:32:51;;;;;;;51.40;41.57;;;;;;;15.82;61.27;98630.59;113934;1196;64368;-81
2021/04/20 11:35:20;;;;;;;53.33;42.20;;;;;;;15.78;60.69;98635.41;113856;1196;64422;-81
2021/04/20 11:37:49;;;;;;;56.20;42.50;;;;;;;15.78;60.67;98628.20;113959;1200;64442;-81
2021/04/20 11:40:30;;;;;;;54.87;41.37;;;;;;;15.99;60.53;98627.16;113871;1196;64449;-81